sensor_id;sensor_type;location;lat;lon;timestamp;temperature;humidity
60848;DHT22;46681;47.696;9.140;2024-02-15T00:00:42;11.70;50.80
60848;DHT22;46681;47.696;9.140;2024-02-15T00:03:07;11.70;50.80
60848;DHT22;46681;47.696;9.140;2024-02-15T00:05:33;11.60;50.80
60848;DHT22;46681;47.696;9.140;2024-02-15T00:07:59;11.60;50.70
60848;DHT22;46681;47.696;9.140;2024-02-15T00:10:24;11.60;50.70
60848;DHT22;46681;47.696;9.140;2024-02-15T00:12:50;11.60;50.70
60848;DHT22;46681;47.696;9.140;2024-02-15T00:15:15;11.60;50.70
60848;DHT22;46681;47.696;9.140;2024-02-15T00:17:41;11.50;50.60
60848;DHT22;46681;47.696;9.140;2024-02-15T00:20:06;11.50;50.70
60848;DHT22;46681;47.696;9.140;2024-02-15T00:22:32;11.50;50.70
60848;DHT22;46681;47.696;9.140;2024-02-15T00:24:57;11.50;50.70
60848;DHT22;46681;47.696;9.140;2024-02-15T00:27:23;11.50;50.60
60848;DHT22;46681;47.696;9.140;2024-02-15T00:29:48;11.50;50.60
60848;DHT22;46681;47.696;9.140;2024-02-15T00:32:14;11.40;50.60
60848;DHT22;46681;47.696;9.140;2024-02-15T00:34:39;11.40;50.60
60848;DHT22;46681;47.696;9.140;2024-02-15T00:37:05;11.40;50.60
60848;DHT22;46681;47.696;9.140;2024-02-15T00:39:31;11.40;50.60
60848;DHT22;46681;47.696;9.140;2024-02-15T00:41:59;11.30;50.50
60848;DHT22;46681;47.696;9.140;2024-02-15T00:44:25;11.30;50.60
60848;DHT22;46681;47.696;9.140;2024-02-15T00:46:50;11.30;50.60
60848;DHT22;46681;47.696;9.140;2024-02-15T00:49:17;11.30;50.50
60848;DHT22;46681;47.696;9.140;2024-02-15T00:51:43;11.30;50.50
60848;DHT22;46681;47.696;9.140;2024-02-15T00:54:08;11.30;50.50
60848;DHT22;46681;47.696;9.140;2024-02-15T00:56:33;11.20;50.50
60848;DHT22;46681;47.696;9.140;2024-02-15T00:58:59;11.20;50.50
60848;DHT22;46681;47.696;9.140;2024-02-15T01:01:25;11.20;50.40
60848;DHT22;46681;47.696;9.140;2024-02-15T01:03:53;11.20;50.40
60848;DHT22;46681;47.696;9.140;2024-02-15T01:06:18;11.20;50.40
60848;DHT22;46681;47.696;9.140;2024-02-15T01:08:46;11.20;50.50
60848;DHT22;46681;47.696;9.140;2024-02-15T01:11:12;11.10;50.30
60848;DHT22;46681;47.696;9.140;2024-02-15T01:13:37;11.10;50.40
60848;DHT22;46681;47.696;9.140;2024-02-15T01:16:06;11.10;50.40
60848;DHT22;46681;47.696;9.140;2024-02-15T01:18:32;11.10;50.40
60848;DHT22;46681;47.696;9.140;2024-02-15T01:20:58;11.10;50.40
60848;DHT22;46681;47.696;9.140;2024-02-15T01:23:23;11.10;50.40
60848;DHT22;46681;47.696;9.140;2024-02-15T01:25:49;11.10;50.40
60848;DHT22;46681;47.696;9.140;2024-02-15T01:28:14;11.10;50.30
60848;DHT22;46681;47.696;9.140;2024-02-15T01:30:40;11.00;50.30
60848;DHT22;46681;47.696;9.140;2024-02-15T01:33:05;11.00;50.30
60848;DHT22;46681;47.696;9.140;2024-02-15T01:35:31;11.00;50.30
60848;DHT22;46681;47.696;9.140;2024-02-15T01:37:58;11.00;50.30
60848;DHT22;46681;47.696;9.140;2024-02-15T01:40:25;11.00;50.30
60848;DHT22;46681;47.696;9.140;2024-02-15T01:42:51;11.00;50.20
60848;DHT22;46681;47.696;9.140;2024-02-15T01:45:16;10.90;50.20
60848;DHT22;46681;47.696;9.140;2024-02-15T01:47:42;10.90;50.20
60848;DHT22;46681;47.696;9.140;2024-02-15T01:50:11;10.90;50.20
60848;DHT22;46681;47.696;9.140;2024-02-15T01:52:43;10.90;50.30
60848;DHT22;46681;47.696;9.140;2024-02-15T01:55:10;10.90;50.30
60848;DHT22;46681;47.696;9.140;2024-02-15T01:57:36;10.90;50.30
60848;DHT22;46681;47.696;9.140;2024-02-15T02:00:02;10.80;50.20
60848;DHT22;46681;47.696;9.140;2024-02-15T02:02:32;10.80;50.20
60848;DHT22;46681;47.696;9.140;2024-02-15T02:05:02;10.80;50.10
60848;DHT22;46681;47.696;9.140;2024-02-15T02:07:27;10.80;50.10
60848;DHT22;46681;47.696;9.140;2024-02-15T02:09:53;10.80;50.10
60848;DHT22;46681;47.696;9.140;2024-02-15T02:12:18;10.80;50.00
60848;DHT22;46681;47.696;9.140;2024-02-15T02:14:44;10.80;50.00
60848;DHT22;46681;47.696;9.140;2024-02-15T02:17:13;10.70;50.00
60848;DHT22;46681;47.696;9.140;2024-02-15T02:19:39;10.60;50.00
60848;DHT22;46681;47.696;9.140;2024-02-15T02:22:05;10.70;50.00
60848;DHT22;46681;47.696;9.140;2024-02-15T02:24:33;10.70;50.00
60848;DHT22;46681;47.696;9.140;2024-02-15T02:27:01;10.70;50.00
60848;DHT22;46681;47.696;9.140;2024-02-15T02:29:27;10.70;49.90
60848;DHT22;46681;47.696;9.140;2024-02-15T02:31:52;10.60;49.90
60848;DHT22;46681;47.696;9.140;2024-02-15T02:34:18;10.70;49.90
60848;DHT22;46681;47.696;9.140;2024-02-15T02:36:44;10.60;49.90
60848;DHT22;46681;47.696;9.140;2024-02-15T02:39:09;10.60;49.90
60848;DHT22;46681;47.696;9.140;2024-02-15T02:41:35;10.60;49.90
60848;DHT22;46681;47.696;9.140;2024-02-15T02:44:00;10.50;49.90
60848;DHT22;46681;47.696;9.140;2024-02-15T02:46:26;10.50;49.90
60848;DHT22;46681;47.696;9.140;2024-02-15T02:48:51;10.50;49.90
60848;DHT22;46681;47.696;9.140;2024-02-15T02:51:17;10.50;49.80
60848;DHT22;46681;47.696;9.140;2024-02-15T02:53:42;10.60;49.90
60848;DHT22;46681;47.696;9.140;2024-02-15T02:56:08;10.60;49.80
60848;DHT22;46681;47.696;9.140;2024-02-15T02:58:33;10.50;49.70
60848;DHT22;46681;47.696;9.140;2024-02-15T03:00:59;10.50;49.70
60848;DHT22;46681;47.696;9.140;2024-02-15T03:03:27;10.50;49.80
60848;DHT22;46681;47.696;9.140;2024-02-15T03:08:29;10.40;49.80
60848;DHT22;46681;47.696;9.140;2024-02-15T03:10:54;10.40;49.80
60848;DHT22;46681;47.696;9.140;2024-02-15T03:13:20;10.40;49.80
60848;DHT22;46681;47.696;9.140;2024-02-15T03:15:45;10.40;49.70
60848;DHT22;46681;47.696;9.140;2024-02-15T03:18:11;10.40;49.70
60848;DHT22;46681;47.696;9.140;2024-02-15T03:20:39;10.40;49.70
60848;DHT22;46681;47.696;9.140;2024-02-15T03:23:05;10.40;49.70
60848;DHT22;46681;47.696;9.140;2024-02-15T03:25:30;10.40;49.60
60848;DHT22;46681;47.696;9.140;2024-02-15T03:27:57;10.40;49.60
60848;DHT22;46681;47.696;9.140;2024-02-15T03:30:27;10.30;49.50
60848;DHT22;46681;47.696;9.140;2024-02-15T03:32:54;10.30;50.00
60848;DHT22;46681;47.696;9.140;2024-02-15T03:35:21;10.30;49.60
60848;DHT22;46681;47.696;9.140;2024-02-15T03:37:48;10.30;49.70
60848;DHT22;46681;47.696;9.140;2024-02-15T03:40:14;10.20;49.60
60848;DHT22;46681;47.696;9.140;2024-02-15T03:42:39;10.30;49.70
60848;DHT22;46681;47.696;9.140;2024-02-15T03:45:06;10.20;49.60
60848;DHT22;46681;47.696;9.140;2024-02-15T03:47:35;10.20;49.60
60848;DHT22;46681;47.696;9.140;2024-02-15T03:50:01;10.20;49.60
60848;DHT22;46681;47.696;9.140;2024-02-15T03:52:26;10.30;49.60
60848;DHT22;46681;47.696;9.140;2024-02-15T03:54:52;10.30;49.50
60848;DHT22;46681;47.696;9.140;2024-02-15T03:57:18;10.30;49.50
60848;DHT22;46681;47.696;9.140;2024-02-15T03:59:43;10.20;49.40
60848;DHT22;46681;47.696;9.140;2024-02-15T04:02:10;10.20;49.40
60848;DHT22;46681;47.696;9.140;2024-02-15T04:04:36;10.20;49.50
60848;DHT22;46681;47.696;9.140;2024-02-15T04:07:01;10.20;49.50
60848;DHT22;46681;47.696;9.140;2024-02-15T04:09:27;10.10;49.50
60848;DHT22;46681;47.696;9.140;2024-02-15T04:11:52;10.10;49.50
60848;DHT22;46681;47.696;9.140;2024-02-15T04:14:19;10.10;49.50
60848;DHT22;46681;47.696;9.140;2024-02-15T04:16:45;10.10;49.50
60848;DHT22;46681;47.696;9.140;2024-02-15T04:19:11;10.10;49.50
60848;DHT22;46681;47.696;9.140;2024-02-15T04:21:36;10.10;49.40
60848;DHT22;46681;47.696;9.140;2024-02-15T04:24:02;10.10;49.40
60848;DHT22;46681;47.696;9.140;2024-02-15T04:26:27;10.10;49.30
60848;DHT22;46681;47.696;9.140;2024-02-15T04:28:54;10.10;49.30
60848;DHT22;46681;47.696;9.140;2024-02-15T04:31:19;10.10;49.30
60848;DHT22;46681;47.696;9.140;2024-02-15T04:33:45;10.10;49.30
60848;DHT22;46681;47.696;9.140;2024-02-15T04:36:10;10.10;49.20
60848;DHT22;46681;47.696;9.140;2024-02-15T04:38:40;10.10;49.20
60848;DHT22;46681;47.696;9.140;2024-02-15T04:41:06;10.10;49.30
60848;DHT22;46681;47.696;9.140;2024-02-15T04:43:31;10.10;49.20
60848;DHT22;46681;47.696;9.140;2024-02-15T04:45:57;10.10;49.10
60848;DHT22;46681;47.696;9.140;2024-02-15T04:48:22;10.10;49.20
60848;DHT22;46681;47.696;9.140;2024-02-15T04:50:48;10.00;49.20
60848;DHT22;46681;47.696;9.140;2024-02-15T04:53:14;10.00;49.20
60848;DHT22;46681;47.696;9.140;2024-02-15T04:55:39;10.00;49.20
60848;DHT22;46681;47.696;9.140;2024-02-15T04:58:04;10.00;49.20
60848;DHT22;46681;47.696;9.140;2024-02-15T05:00:30;10.00;49.60
60848;DHT22;46681;47.696;9.140;2024-02-15T05:02:55;10.00;49.20
60848;DHT22;46681;47.696;9.140;2024-02-15T05:05:21;10.00;49.10
60848;DHT22;46681;47.696;9.140;2024-02-15T05:07:47;10.00;49.10
60848;DHT22;46681;47.696;9.140;2024-02-15T05:10:12;10.10;49.20
60848;DHT22;46681;47.696;9.140;2024-02-15T05:12:38;10.10;49.10
60848;DHT22;46681;47.696;9.140;2024-02-15T05:15:07;10.10;48.90
60848;DHT22;46681;47.696;9.140;2024-02-15T05:17:33;10.20;48.80
60848;DHT22;46681;47.696;9.140;2024-02-15T05:19:58;10.30;48.70
60848;DHT22;46681;47.696;9.140;2024-02-15T05:22:24;10.40;48.60
60848;DHT22;46681;47.696;9.140;2024-02-15T05:24:50;10.50;48.40
60848;DHT22;46681;47.696;9.140;2024-02-15T05:27:18;10.50;48.30
60848;DHT22;46681;47.696;9.140;2024-02-15T05:29:43;10.60;48.20
60848;DHT22;46681;47.696;9.140;2024-02-15T05:32:11;10.60;48.10
60848;DHT22;46681;47.696;9.140;2024-02-15T05:34:38;10.70;48.00
60848;DHT22;46681;47.696;9.140;2024-02-15T05:37:05;10.70;47.90
60848;DHT22;46681;47.696;9.140;2024-02-15T05:39:33;10.70;47.80
60848;DHT22;46681;47.696;9.140;2024-02-15T05:41:58;10.80;47.80
60848;DHT22;46681;47.696;9.140;2024-02-15T05:44:27;10.80;47.70
60848;DHT22;46681;47.696;9.140;2024-02-15T05:46:52;10.80;47.70
60848;DHT22;46681;47.696;9.140;2024-02-15T05:49:18;10.90;47.60
60848;DHT22;46681;47.696;9.140;2024-02-15T05:51:46;10.90;47.60
60848;DHT22;46681;47.696;9.140;2024-02-15T05:54:11;11.00;47.50
60848;DHT22;46681;47.696;9.140;2024-02-15T05:56:38;11.00;47.50
60848;DHT22;46681;47.696;9.140;2024-02-15T05:59:05;11.00;47.50
60848;DHT22;46681;47.696;9.140;2024-02-15T06:01:31;11.00;47.40
60848;DHT22;46681;47.696;9.140;2024-02-15T06:03:58;11.00;47.40
60848;DHT22;46681;47.696;9.140;2024-02-15T06:06:24;11.00;47.30
60848;DHT22;46681;47.696;9.140;2024-02-15T06:08:49;11.00;47.30
60848;DHT22;46681;47.696;9.140;2024-02-15T06:11:18;11.00;47.30
60848;DHT22;46681;47.696;9.140;2024-02-15T06:13:44;11.00;47.30
60848;DHT22;46681;47.696;9.140;2024-02-15T06:16:09;11.10;47.30
60848;DHT22;46681;47.696;9.140;2024-02-15T06:18:35;11.10;47.60
60848;DHT22;46681;47.696;9.140;2024-02-15T06:21:03;11.20;47.70
60848;DHT22;46681;47.696;9.140;2024-02-15T06:23:28;11.10;47.70
60848;DHT22;46681;47.696;9.140;2024-02-15T06:25:55;11.20;47.70
60848;DHT22;46681;47.696;9.140;2024-02-15T06:28:24;11.20;48.10
60848;DHT22;46681;47.696;9.140;2024-02-15T06:30:52;11.20;47.90
60848;DHT22;46681;47.696;9.140;2024-02-15T06:33:18;11.20;48.00
60848;DHT22;46681;47.696;9.140;2024-02-15T06:35:46;11.20;48.10
60848;DHT22;46681;47.696;9.140;2024-02-15T06:38:11;11.20;48.10
60848;DHT22;46681;47.696;9.140;2024-02-15T06:40:37;11.20;48.00
60848;DHT22;46681;47.696;9.140;2024-02-15T06:43:02;11.20;48.00
60848;DHT22;46681;47.696;9.140;2024-02-15T06:45:29;11.20;48.10
60848;DHT22;46681;47.696;9.140;2024-02-15T06:47:54;11.20;48.20
60848;DHT22;46681;47.696;9.140;2024-02-15T06:50:20;11.20;48.20
60848;DHT22;46681;47.696;9.140;2024-02-15T06:52:54;11.20;48.10
60848;DHT22;46681;47.696;9.140;2024-02-15T06:55:22;11.20;48.20
60848;DHT22;46681;47.696;9.140;2024-02-15T06:57:49;11.20;48.10
60848;DHT22;46681;47.696;9.140;2024-02-15T07:00:20;11.20;48.10
60848;DHT22;46681;47.696;9.140;2024-02-15T07:02:50;11.20;48.10
60848;DHT22;46681;47.696;9.140;2024-02-15T07:05:19;11.20;48.10
60848;DHT22;46681;47.696;9.140;2024-02-15T07:07:46;11.30;48.20
60848;DHT22;46681;47.696;9.140;2024-02-15T07:10:14;11.30;48.10
60848;DHT22;46681;47.696;9.140;2024-02-15T07:12:46;11.30;48.10
60848;DHT22;46681;47.696;9.140;2024-02-15T07:15:20;11.20;48.10
60848;DHT22;46681;47.696;9.140;2024-02-15T07:17:46;11.30;48.20
60848;DHT22;46681;47.696;9.140;2024-02-15T07:20:13;11.30;48.10
60848;DHT22;46681;47.696;9.140;2024-02-15T07:22:39;11.30;48.20
60848;DHT22;46681;47.696;9.140;2024-02-15T07:25:07;11.40;48.30
60848;DHT22;46681;47.696;9.140;2024-02-15T07:27:34;11.40;48.20
60848;DHT22;46681;47.696;9.140;2024-02-15T07:30:00;11.40;48.20
60848;DHT22;46681;47.696;9.140;2024-02-15T07:32:29;11.40;48.10
60848;DHT22;46681;47.696;9.140;2024-02-15T07:34:59;11.40;48.20
60848;DHT22;46681;47.696;9.140;2024-02-15T07:37:34;11.50;48.20
60848;DHT22;46681;47.696;9.140;2024-02-15T07:40:07;11.50;48.20
60848;DHT22;46681;47.696;9.140;2024-02-15T07:43:00;11.60;48.20
60848;DHT22;46681;47.696;9.140;2024-02-15T07:45:43;11.60;48.20
60848;DHT22;46681;47.696;9.140;2024-02-15T07:48:09;11.70;48.20
60848;DHT22;46681;47.696;9.140;2024-02-15T07:50:35;11.70;48.20
60848;DHT22;46681;47.696;9.140;2024-02-15T07:53:07;11.70;48.30
60848;DHT22;46681;47.696;9.140;2024-02-15T07:55:39;11.80;48.40
60848;DHT22;46681;47.696;9.140;2024-02-15T07:58:04;11.80;48.30
60848;DHT22;46681;47.696;9.140;2024-02-15T08:00:34;11.80;48.40
60848;DHT22;46681;47.696;9.140;2024-02-15T08:03:06;11.80;48.40
60848;DHT22;46681;47.696;9.140;2024-02-15T08:05:35;11.90;48.50
60848;DHT22;46681;47.696;9.140;2024-02-15T08:08:10;11.90;48.50
60848;DHT22;46681;47.696;9.140;2024-02-15T08:10:37;12.00;48.60
60848;DHT22;46681;47.696;9.140;2024-02-15T08:13:06;12.00;48.50
60848;DHT22;46681;47.696;9.140;2024-02-15T08:15:35;12.00;48.60
60848;DHT22;46681;47.696;9.140;2024-02-15T08:18:02;12.10;48.70
60848;DHT22;46681;47.696;9.140;2024-02-15T08:20:31;12.10;48.70
60848;DHT22;46681;47.696;9.140;2024-02-15T08:22:56;12.20;48.70
60848;DHT22;46681;47.696;9.140;2024-02-15T08:25:22;12.20;48.60
60848;DHT22;46681;47.696;9.140;2024-02-15T08:27:51;12.30;48.60
60848;DHT22;46681;47.696;9.140;2024-02-15T08:30:21;12.40;48.50
60848;DHT22;46681;47.696;9.140;2024-02-15T08:32:48;12.50;48.50
60848;DHT22;46681;47.696;9.140;2024-02-15T08:35:17;12.60;48.40
60848;DHT22;46681;47.696;9.140;2024-02-15T08:37:43;12.70;48.30
60848;DHT22;46681;47.696;9.140;2024-02-15T08:40:15;12.90;48.30
60848;DHT22;46681;47.696;9.140;2024-02-15T08:42:44;13.00;48.20
60848;DHT22;46681;47.696;9.140;2024-02-15T08:45:11;13.10;48.20
60848;DHT22;46681;47.696;9.140;2024-02-15T08:47:37;13.20;48.10
60848;DHT22;46681;47.696;9.140;2024-02-15T08:50:04;13.30;48.10
60848;DHT22;46681;47.696;9.140;2024-02-15T08:52:37;13.40;48.00
60848;DHT22;46681;47.696;9.140;2024-02-15T08:55:08;13.50;48.00
60848;DHT22;46681;47.696;9.140;2024-02-15T08:57:41;13.60;48.10
60848;DHT22;46681;47.696;9.140;2024-02-15T09:00:11;13.70;48.10
60848;DHT22;46681;47.696;9.140;2024-02-15T09:02:39;13.80;48.10
60848;DHT22;46681;47.696;9.140;2024-02-15T09:05:10;13.90;48.10
60848;DHT22;46681;47.696;9.140;2024-02-15T09:07:40;14.00;48.00
60848;DHT22;46681;47.696;9.140;2024-02-15T09:10:12;14.10;47.90
60848;DHT22;46681;47.696;9.140;2024-02-15T09:12:50;14.20;47.90
60848;DHT22;46681;47.696;9.140;2024-02-15T09:15:18;14.30;47.80
60848;DHT22;46681;47.696;9.140;2024-02-15T09:17:48;14.40;47.90
60848;DHT22;46681;47.696;9.140;2024-02-15T09:20:16;14.60;47.60
60848;DHT22;46681;47.696;9.140;2024-02-15T09:22:52;14.70;47.10
60848;DHT22;46681;47.696;9.140;2024-02-15T09:25:23;14.80;47.10
60848;DHT22;46681;47.696;9.140;2024-02-15T09:27:52;15.00;47.00
60848;DHT22;46681;47.696;9.140;2024-02-15T09:30:26;15.10;46.70
60848;DHT22;46681;47.696;9.140;2024-02-15T09:32:52;15.30;46.60
60848;DHT22;46681;47.696;9.140;2024-02-15T09:35:18;15.40;46.40
60848;DHT22;46681;47.696;9.140;2024-02-15T09:37:48;15.50;46.10
60848;DHT22;46681;47.696;9.140;2024-02-15T09:40:17;15.60;45.70
60848;DHT22;46681;47.696;9.140;2024-02-15T09:42:44;15.80;45.80
60848;DHT22;46681;47.696;9.140;2024-02-15T09:45:18;15.90;45.40
60848;DHT22;46681;47.696;9.140;2024-02-15T09:47:44;16.00;45.40
60848;DHT22;46681;47.696;9.140;2024-02-15T09:50:12;16.20;45.40
60848;DHT22;46681;47.696;9.140;2024-02-15T09:52:53;16.30;45.40
60848;DHT22;46681;47.696;9.140;2024-02-15T09:55:22;16.30;45.20
60848;DHT22;46681;47.696;9.140;2024-02-15T09:57:49;16.30;45.10
60848;DHT22;46681;47.696;9.140;2024-02-15T10:00:22;16.30;45.30
60848;DHT22;46681;47.696;9.140;2024-02-15T10:02:55;16.40;45.50
60848;DHT22;46681;47.696;9.140;2024-02-15T10:05:27;16.30;45.60
60848;DHT22;46681;47.696;9.140;2024-02-15T10:07:55;16.40;45.70
60848;DHT22;46681;47.696;9.140;2024-02-15T10:10:24;16.50;45.70
60848;DHT22;46681;47.696;9.140;2024-02-15T10:12:53;16.50;45.60
60848;DHT22;46681;47.696;9.140;2024-02-15T10:15:34;16.60;45.70
60848;DHT22;46681;47.696;9.140;2024-02-15T10:18:07;16.60;46.00
60848;DHT22;46681;47.696;9.140;2024-02-15T10:20:40;16.60;45.60
60848;DHT22;46681;47.696;9.140;2024-02-15T10:23:11;16.60;45.60
60848;DHT22;46681;47.696;9.140;2024-02-15T10:25:38;16.60;45.60
60848;DHT22;46681;47.696;9.140;2024-02-15T10:28:21;16.60;45.70
60848;DHT22;46681;47.696;9.140;2024-02-15T10:30:47;16.60;45.80
60848;DHT22;46681;47.696;9.140;2024-02-15T10:33:28;16.60;45.90
60848;DHT22;46681;47.696;9.140;2024-02-15T10:36:08;16.50;46.00
60848;DHT22;46681;47.696;9.140;2024-02-15T10:38:40;16.50;46.10
60848;DHT22;46681;47.696;9.140;2024-02-15T10:41:09;16.50;46.10
60848;DHT22;46681;47.696;9.140;2024-02-15T10:43:45;16.50;46.20
60848;DHT22;46681;47.696;9.140;2024-02-15T10:46:11;16.50;46.10
60848;DHT22;46681;47.696;9.140;2024-02-15T10:48:43;16.50;46.30
60848;DHT22;46681;47.696;9.140;2024-02-15T10:51:14;16.40;46.20
60848;DHT22;46681;47.696;9.140;2024-02-15T10:53:57;16.40;46.10
60848;DHT22;46681;47.696;9.140;2024-02-15T10:56:35;16.40;46.10
60848;DHT22;46681;47.696;9.140;2024-02-15T10:59:24;16.30;45.90
60848;DHT22;46681;47.696;9.140;2024-02-15T11:02:47;16.50;46.40
60848;DHT22;46681;47.696;9.140;2024-02-15T11:05:22;16.90;46.40
60848;DHT22;46681;47.696;9.140;2024-02-15T11:07:52;17.30;45.90
60848;DHT22;46681;47.696;9.140;2024-02-15T11:10:18;17.50;45.80
60848;DHT22;46681;47.696;9.140;2024-02-15T11:12:59;17.70;45.70
60848;DHT22;46681;47.696;9.140;2024-02-15T11:15:52;18.00;45.50
60848;DHT22;46681;47.696;9.140;2024-02-15T11:21:58;18.50;45.00
60848;DHT22;46681;47.696;9.140;2024-02-15T11:24:47;18.70;44.70
60848;DHT22;46681;47.696;9.140;2024-02-15T11:27:33;18.90;44.70
60848;DHT22;46681;47.696;9.140;2024-02-15T11:30:12;19.00;44.50
60848;DHT22;46681;47.696;9.140;2024-02-15T11:38:47;19.40;43.80
60848;DHT22;46681;47.696;9.140;2024-02-15T11:41:21;19.50;43.70
60848;DHT22;46681;47.696;9.140;2024-02-15T11:43:53;19.50;43.50
60848;DHT22;46681;47.696;9.140;2024-02-15T11:46:22;19.60;43.60
60848;DHT22;46681;47.696;9.140;2024-02-15T11:48:49;19.70;43.50
60848;DHT22;46681;47.696;9.140;2024-02-15T11:51:38;19.80;43.20
60848;DHT22;46681;47.696;9.140;2024-02-15T11:54:14;19.90;43.40
60848;DHT22;46681;47.696;9.140;2024-02-15T11:56:54;20.00;43.30
60848;DHT22;46681;47.696;9.140;2024-02-15T11:59:23;20.20;43.10
60848;DHT22;46681;47.696;9.140;2024-02-15T12:02:06;20.30;43.00
60848;DHT22;46681;47.696;9.140;2024-02-15T12:04:34;20.40;42.80
60848;DHT22;46681;47.696;9.140;2024-02-15T12:07:00;20.50;42.70
60848;DHT22;46681;47.696;9.140;2024-02-15T12:09:27;20.50;42.70
60848;DHT22;46681;47.696;9.140;2024-02-15T12:12:01;20.60;42.80
60848;DHT22;46681;47.696;9.140;2024-02-15T12:14:28;20.70;42.60
60848;DHT22;46681;47.696;9.140;2024-02-15T12:17:10;20.70;42.50
60848;DHT22;46681;47.696;9.140;2024-02-15T12:19:44;20.80;42.40
60848;DHT22;46681;47.696;9.140;2024-02-15T12:22:13;20.90;42.40
60848;DHT22;46681;47.696;9.140;2024-02-15T12:24:43;21.00;42.30
60848;DHT22;46681;47.696;9.140;2024-02-15T12:27:14;21.10;42.20
60848;DHT22;46681;47.696;9.140;2024-02-15T12:29:43;21.20;42.10
60848;DHT22;46681;47.696;9.140;2024-02-15T12:32:29;21.20;42.20
60848;DHT22;46681;47.696;9.140;2024-02-15T12:35:16;21.20;41.90
60848;DHT22;46681;47.696;9.140;2024-02-15T12:40:19;21.10;42.10
60848;DHT22;46681;47.696;9.140;2024-02-15T12:42:53;21.10;42.10
60848;DHT22;46681;47.696;9.140;2024-02-15T12:45:38;21.10;42.20
60848;DHT22;46681;47.696;9.140;2024-02-15T12:48:18;21.10;42.30
60848;DHT22;46681;47.696;9.140;2024-02-15T12:50:49;21.20;42.20
60848;DHT22;46681;47.696;9.140;2024-02-15T12:53:26;21.30;42.20
60848;DHT22;46681;47.696;9.140;2024-02-15T12:56:06;21.40;42.10
60848;DHT22;46681;47.696;9.140;2024-02-15T12:58:37;21.50;42.00
60848;DHT22;46681;47.696;9.140;2024-02-15T13:01:07;21.60;41.90
60848;DHT22;46681;47.696;9.140;2024-02-15T13:03:36;21.60;41.80
60848;DHT22;46681;47.696;9.140;2024-02-15T13:06:02;21.70;41.80
60848;DHT22;46681;47.696;9.140;2024-02-15T13:08:30;21.70;41.70
60848;DHT22;46681;47.696;9.140;2024-02-15T13:10:55;21.60;42.10
60848;DHT22;46681;47.696;9.140;2024-02-15T13:13:22;21.70;41.80
60848;DHT22;46681;47.696;9.140;2024-02-15T13:15:49;21.70;41.80
60848;DHT22;46681;47.696;9.140;2024-02-15T13:18:16;21.70;41.80
60848;DHT22;46681;47.696;9.140;2024-02-15T13:20:48;21.80;41.70
60848;DHT22;46681;47.696;9.140;2024-02-15T13:23:26;21.80;41.60
60848;DHT22;46681;47.696;9.140;2024-02-15T13:26:13;21.70;41.60
60848;DHT22;46681;47.696;9.140;2024-02-15T13:28:41;21.70;41.70
60848;DHT22;46681;47.696;9.140;2024-02-15T13:31:06;21.70;41.80
60848;DHT22;46681;47.696;9.140;2024-02-15T13:33:31;21.60;41.80
60848;DHT22;46681;47.696;9.140;2024-02-15T13:35:57;21.60;42.10
60848;DHT22;46681;47.696;9.140;2024-02-15T13:38:26;21.60;42.00
60848;DHT22;46681;47.696;9.140;2024-02-15T13:40:54;21.50;42.00
60848;DHT22;46681;47.696;9.140;2024-02-15T13:43:25;21.50;42.10
60848;DHT22;46681;47.696;9.140;2024-02-15T13:45:53;21.50;42.20
60848;DHT22;46681;47.696;9.140;2024-02-15T13:48:29;21.50;42.20
60848;DHT22;46681;47.696;9.140;2024-02-15T13:51:09;21.50;42.10
60848;DHT22;46681;47.696;9.140;2024-02-15T13:53:40;21.60;42.20
60848;DHT22;46681;47.696;9.140;2024-02-15T13:56:10;21.60;42.10
60848;DHT22;46681;47.696;9.140;2024-02-15T13:58:43;21.70;42.10
60848;DHT22;46681;47.696;9.140;2024-02-15T14:01:08;21.50;41.70
60848;DHT22;46681;47.696;9.140;2024-02-15T14:03:40;21.50;42.20
60848;DHT22;46681;47.696;9.140;2024-02-15T14:06:10;21.50;42.20
60848;DHT22;46681;47.696;9.140;2024-02-15T14:08:42;21.60;42.30
60848;DHT22;46681;47.696;9.140;2024-02-15T14:11:08;21.50;42.30
60848;DHT22;46681;47.696;9.140;2024-02-15T14:13:37;21.50;42.20
60848;DHT22;46681;47.696;9.140;2024-02-15T14:16:18;21.40;42.60
60848;DHT22;46681;47.696;9.140;2024-02-15T14:18:44;21.30;42.20
60848;DHT22;46681;47.696;9.140;2024-02-15T14:21:22;21.30;42.30
60848;DHT22;46681;47.696;9.140;2024-02-15T14:24:01;21.20;42.30
60848;DHT22;46681;47.696;9.140;2024-02-15T14:26:45;21.20;42.50
60848;DHT22;46681;47.696;9.140;2024-02-15T14:29:14;21.10;42.60
60848;DHT22;46681;47.696;9.140;2024-02-15T14:31:43;21.00;42.60
60848;DHT22;46681;47.696;9.140;2024-02-15T14:34:14;20.90;43.10
60848;DHT22;46681;47.696;9.140;2024-02-15T14:36:47;20.70;43.00
60848;DHT22;46681;47.696;9.140;2024-02-15T14:39:13;20.50;43.10
60848;DHT22;46681;47.696;9.140;2024-02-15T14:41:38;20.40;43.20
60848;DHT22;46681;47.696;9.140;2024-02-15T14:44:10;20.30;43.10
60848;DHT22;46681;47.696;9.140;2024-02-15T14:46:47;20.20;43.40
60848;DHT22;46681;47.696;9.140;2024-02-15T14:49:17;20.10;43.00
60848;DHT22;46681;47.696;9.140;2024-02-15T14:51:43;20.00;43.10
60848;DHT22;46681;47.696;9.140;2024-02-15T14:54:11;19.90;43.00
60848;DHT22;46681;47.696;9.140;2024-02-15T14:56:49;19.80;42.60
60848;DHT22;46681;47.696;9.140;2024-02-15T14:59:14;19.60;42.40
60848;DHT22;46681;47.696;9.140;2024-02-15T15:01:57;19.50;42.80
60848;DHT22;46681;47.696;9.140;2024-02-15T15:04:41;19.40;42.80
60848;DHT22;46681;47.696;9.140;2024-02-15T15:07:32;19.30;42.20
60848;DHT22;46681;47.696;9.140;2024-02-15T15:10:18;19.20;42.10
60848;DHT22;46681;47.696;9.140;2024-02-15T15:12:59;19.10;42.30
60848;DHT22;46681;47.696;9.140;2024-02-15T15:15:40;19.00;42.60
60848;DHT22;46681;47.696;9.140;2024-02-15T15:18:09;19.00;42.80
60848;DHT22;46681;47.696;9.140;2024-02-15T15:20:38;18.90;43.00
60848;DHT22;46681;47.696;9.140;2024-02-15T15:23:17;18.80;42.50
60848;DHT22;46681;47.696;9.140;2024-02-15T15:25:52;18.70;43.20
60848;DHT22;46681;47.696;9.140;2024-02-15T15:28:23;18.70;43.30
60848;DHT22;46681;47.696;9.140;2024-02-15T15:30:49;18.60;43.60
60848;DHT22;46681;47.696;9.140;2024-02-15T15:33:17;18.50;44.00
60848;DHT22;46681;47.696;9.140;2024-02-15T15:35:46;18.40;43.70
60848;DHT22;46681;47.696;9.140;2024-02-15T15:38:13;18.30;45.00
60848;DHT22;46681;47.696;9.140;2024-02-15T15:40:48;18.40;46.80
60848;DHT22;46681;47.696;9.140;2024-02-15T15:43:18;18.30;47.60
60848;DHT22;46681;47.696;9.140;2024-02-15T15:45:49;18.30;47.90
60848;DHT22;46681;47.696;9.140;2024-02-15T15:48:14;18.20;46.90
60848;DHT22;46681;47.696;9.140;2024-02-15T15:50:45;18.20;49.90
60848;DHT22;46681;47.696;9.140;2024-02-15T15:53:43;18.20;49.90
60848;DHT22;46681;47.696;9.140;2024-02-15T15:58:58;18.30;51.10
60848;DHT22;46681;47.696;9.140;2024-02-15T16:01:25;18.20;49.70